Time;durP1;ratioP1;P1;durP2;ratioP2;P2;SDS_P1;SDS_P2;PMS_P1;PMS_P2;Temp;Humidity;BMP_temperature;BMP_pressure;BME280_temperature;BME280_humidity;BME280_pressure;Samples;Min_cycle;Max_cycle;Signal;HPM_P1;HPM_P2
2021/09/14 00:01:04;;;;;;;;;;;;;;;21.03;56.71;100653.75;5115509;28;803;-58
2021/09/14 00:03:29;;;;;;;;;;;;;;;21.36;56.08;100654.44;5116076;28;803;-45
2021/09/14 00:05:54;;;;;;;;;;;;;;;21.53;55.94;100653.00;5116217;28;819;-58
2021/09/14 00:08:20;;;;;;;;;;;;;;;21.62;56.08;100655.88;5116577;27;815;-45
2021/09/14 00:10:45;;;;;;;;;;;;;;;21.82;55.71;100652.63;5120186;28;1020;-58
2021/09/14 00:13:11;;;;;;;;;;;;;;;21.75;55.84;100657.75;5120033;28;795;-58
2021/09/14 00:15:36;;;;;;;;;;;;;;;21.67;55.05;100656.56;5119565;27;957;-58
2021/09/14 00:18:02;;;;;;;;;;;;;;;20.45;54.37;100653.09;5120119;28;1981;-59
2021/09/14 00:20:27;;;;;;;;;;;;;;;19.79;52.02;100652.22;5119970;28;819;-52
2021/09/14 00:22:53;;;;;;;;;;;;;;;19.03;50.07;100647.41;5139715;27;1581;-58
2021/09/14 00:25:18;;;;;;;;;;;;;;;18.44;48.65;100646.59;5140596;27;854;-47
2021/09/14 00:27:44;;;;;;;;;;;;;;;18.10;47.94;100656.53;5140206;27;754;-58
2021/09/14 00:30:09;;;;;;;;;;;;;;;18.06;47.91;100649.94;5125052;27;1090;-57
2021/09/14 00:32:35;;;;;;;;;;;;;;;18.69;50.30;100664.81;5120215;28;783;-58
2021/09/14 00:35:00;;;;;;;;;;;;;;;19.29;52.64;100656.19;5118317;28;768;-57
2021/09/14 00:37:26;;;;;;;;;;;;;;;19.56;54.50;100660.25;5119544;28;1972;-45
2021/09/14 00:39:51;;;;;;;;;;;;;;;19.91;55.46;100660.06;5119543;28;783;-57
2021/09/14 00:42:17;;;;;;;;;;;;;;;20.38;55.92;100663.72;5119181;28;752;-57
2021/09/14 00:44:42;;;;;;;;;;;;;;;20.83;55.56;100658.53;5118889;27;1024;-58
2021/09/14 00:47:08;;;;;;;;;;;;;;;20.82;56.57;100656.09;5119650;28;835;-57
2021/09/14 00:49:33;;;;;;;;;;;;;;;20.95;56.89;100655.25;5119338;28;807;-57
2021/09/14 00:51:59;;;;;;;;;;;;;;;21.37;55.85;100660.78;5118312;27;1191;-45
2021/09/14 00:54:24;;;;;;;;;;;;;;;21.42;56.31;100663.44;5119432;28;807;-57
2021/09/14 00:56:49;;;;;;;;;;;;;;;21.58;56.12;100654.84;5100918;28;1910;-45
2021/09/14 00:59:15;;;;;;;;;;;;;;;21.55;56.42;100650.75;5125088;27;1183;-47
2021/09/14 01:01:40;;;;;;;;;;;;;;;21.70;55.95;100655.94;5138647;27;1132;-57
2021/09/14 01:04:06;;;;;;;;;;;;;;;21.50;55.38;100654.44;5139787;27;1006;-57
2021/09/14 01:06:35;;;;;;;;;;;;;;;20.37;54.22;100656.59;5120804;27;2210;-44
2021/09/14 01:09:01;;;;;;;;;;;;;;;19.70;51.70;100654.81;5137892;27;1208;-53
2021/09/14 01:11:27;;;;;;;;;;;;;;;18.75;50.47;100649.88;5138543;27;1152;-57
2021/09/14 01:14:02;;;;;;;;;;;;;;;18.30;48.36;100657.47;5135122;27;1220;-58
2021/09/14 01:16:28;;;;;;;;;;;;;;;18.18;47.35;100651.50;5118132;28;1901;-47
2021/09/14 01:18:54;;;;;;;;;;;;;;;18.12;49.06;100650.72;5118337;28;802;-58
2021/09/14 01:21:20;;;;;;;;;;;;;;;18.84;52.13;100654.75;5125126;27;1612;-53
2021/09/14 01:23:46;;;;;;;;;;;;;;;19.63;53.02;100648.84;5137813;27;1143;-57
2021/09/14 01:26:11;;;;;;;;;;;;;;;19.75;55.10;100651.97;5139779;27;810;-58
2021/09/14 01:28:37;;;;;;;;;;;;;;;20.02;56.13;100655.19;5135836;27;1180;-58
2021/09/14 01:31:04;;;;;;;;;;;;;;;20.59;55.65;100657.84;5117249;28;1294;-58
2021/09/14 01:33:30;;;;;;;;;;;;;;;21.01;55.36;100647.69;5117534;27;1168;-58
2021/09/14 01:35:59;;;;;;;;;;;;;;;20.78;56.73;100658.63;5117584;28;1193;-57
2021/09/14 01:38:24;;;;;;;;;;;;;;;21.33;55.75;100654.22;5117418;27;1989;-58
2021/09/14 01:40:53;;;;;;;;;;;;;;;21.28;56.40;100662.63;5117540;27;1254;-46
2021/09/14 01:43:18;;;;;;;;;;;;;;;21.12;57.31;100657.41;5117228;28;1117;-46
2021/09/14 01:45:46;;;;;;;;;;;;;;;21.55;56.29;100649.94;5136386;27;1222;-58
2021/09/14 01:48:20;;;;;;;;;;;;;;;21.66;56.00;100656.88;5138061;27;800;-47
2021/09/14 01:50:46;;;;;;;;;;;;;;;21.49;55.16;100650.00;5138925;27;838;-58
2021/09/14 01:53:12;;;;;;;;;;;;;;;20.35;54.11;100656.84;5137498;27;1411;-57
2021/09/14 01:55:39;;;;;;;;;;;;;;;19.55;51.91;100652.28;5120484;27;1223;-58
2021/09/14 01:58:04;;;;;;;;;;;;;;;18.71;50.47;100659.03;5137606;27;1918;-59
2021/09/14 02:00:32;;;;;;;;;;;;;;;18.30;48.59;100657.47;5137123;27;1340;-46
2021/09/14 03:00:22;;;;;;;;;;;;;;;19.85;54.79;100683.34;5134780;27;969;-47
2021/09/14 03:02:49;;;;;;;;;;;;;;;20.48;55.01;100680.13;5136061;27;1101;-52
2021/09/14 03:05:15;;;;;;;;;;;;;;;20.46;56.63;100682.38;5137372;27;747;-57
2021/09/14 03:07:43;;;;;;;;;;;;;;;20.94;56.14;100683.22;5136399;27;1164;-51
2021/09/14 03:10:09;;;;;;;;;;;;;;;21.07;56.21;100689.88;5135981;27;1196;-57
2021/09/14 03:12:35;;;;;;;;;;;;;;;21.18;56.55;100686.63;5136053;27;1310;-59
2021/09/14 03:15:01;;;;;;;;;;;;;;;21.41;56.25;100686.69;5135416;27;1282;-48
2021/09/14 03:17:29;;;;;;;;;;;;;;;21.39;56.58;100688.13;5119591;27;1898;-48
2021/09/14 03:19:56;;;;;;;;;;;;;;;21.53;56.20;100692.56;5137027;27;775;-57
2021/09/14 03:22:21;;;;;;;;;;;;;;;21.46;56.80;100692.13;5134287;27;1633;-58
2021/09/14 03:24:47;;;;;;;;;;;;;;;21.72;56.08;100693.56;5135989;27;1136;-57
2021/09/14 03:27:14;;;;;;;;;;;;;;;21.70;55.14;100700.22;5135909;27;1376;-58
2021/09/14 03:29:41;;;;;;;;;;;;;;;20.45;54.72;100702.81;5125689;27;984;-57
2021/09/14 03:32:06;;;;;;;;;;;;;;;19.94;52.36;100698.91;5115550;28;1254;-57
2021/09/14 03:34:33;;;;;;;;;;;;;;;19.13;50.76;100709.84;5116482;28;815;-57
2021/09/14 03:36:58;;;;;;;;;;;;;;;18.54;49.16;100700.75;5114780;27;1914;-55
2021/09/14 03:39:24;;;;;;;;;;;;;;;18.13;47.96;100708.22;5115610;28;1045;-45
2021/09/14 03:41:52;;;;;;;;;;;;;;;18.27;47.84;100713.06;5114779;28;1195;-45
2021/09/14 03:44:17;;;;;;;;;;;;;;;18.70;51.19;100705.00;5115217;27;937;-43
2021/09/14 03:46:43;;;;;;;;;;;;;;;19.49;52.72;100714.97;5115555;28;1567;-57
2021/09/14 03:49:10;;;;;;;;;;;;;;;19.98;53.76;100724.00;5114906;27;1278;-45
2021/09/14 03:51:39;;;;;;;;;;;;;;;20.34;54.96;100717.91;5114855;27;1308;-61
2021/09/14 03:54:04;;;;;;;;;;;;;;;20.48;55.95;100723.50;5114796;27;1142;-59
2021/09/14 03:56:30;;;;;;;;;;;;;;;20.45;56.96;100730.44;5115165;28;1982;-58
2021/09/14 03:58:56;;;;;;;;;;;;;;;20.75;56.64;100724.72;5119095;27;1132;-50
2021/09/14 04:01:22;;;;;;;;;;;;;;;21.07;56.56;100732.19;5122736;27;1447;-45
2021/09/14 04:03:56;;;;;;;;;;;;;;;21.35;56.18;100734.97;5153944;27;1294;-45
2021/09/14 04:07:21;;;;;;;;;;;;;;;21.49;56.09;100738.53;5139485;27;1218;-45
2021/09/14 04:09:11;;;;;;;;;;;;;;;21.61;55.82;100742.75;5142728;27;1457;-44
2021/09/14 04:11:51;;;;;;;;;;;;;;;21.57;55.93;100714.06;5156132;27;1215;-52
2021/09/14 04:14:17;;;;;;;;;;;;;;;21.84;55.14;100741.72;5148570;27;1175;-58
2021/09/14 04:16:43;;;;;;;;;;;;;;;21.20;55.10;100744.38;5135338;28;1966;-55
2021/09/14 04:19:08;;;;;;;;;;;;;;;20.29;53.68;100742.88;5136148;27;814;-62
2021/09/14 04:21:34;;;;;;;;;;;;;;;19.63;51.76;100751.72;5135193;28;1922;-59
2021/09/14 04:23:59;;;;;;;;;;;;;;;18.91;49.90;100740.66;5135313;28;1104;-59
2021/09/14 04:26:29;;;;;;;;;;;;;;;18.57;48.14;100755.25;5135534;28;1089;-53
2021/09/14 04:28:54;;;;;;;;;;;;;;;18.13;48.13;100745.91;5131688;27;1215;-54
2021/09/14 04:31:20;;;;;;;;;;;;;;;18.55;50.78;100751.94;5134316;27;1010;-57
2021/09/14 04:33:47;;;;;;;;;;;;;;;19.12;53.66;100766.88;5138877;27;1311;-56
2021/09/14 04:36:12;;;;;;;;;;;;;;;19.98;53.21;100755.16;5156902;27;801;-56
2021/09/14 04:38:41;;;;;;;;;;;;;;;20.09;55.15;100764.13;5156057;27;1921;-50
2021/09/14 04:41:08;;;;;;;;;;;;;;;20.52;55.44;100766.81;5156310;27;1147;-56
2021/09/14 04:43:33;;;;;;;;;;;;;;;20.76;55.64;100768.66;5152672;27;1128;-55
2021/09/14 04:46:00;;;;;;;;;;;;;;;20.88;56.36;100767.34;5114350;28;1100;-59
2021/09/14 04:48:26;;;;;;;;;;;;;;;21.37;55.21;100760.34;5114953;28;1147;-55
2021/09/14 04:50:52;;;;;;;;;;;;;;;21.55;55.38;100764.19;5114357;28;1228;-45
2021/09/14 04:53:19;;;;;;;;;;;;;;;21.65;55.60;100763.16;5114900;28;1332;-58
2021/09/14 04:55:45;;;;;;;;;;;;;;;21.54;56.11;100770.84;5118700;28;1144;-53
2021/09/14 04:58:10;;;;;;;;;;;;;;;21.56;56.37;100776.06;5118770;28;1921;-55
2021/09/14 05:00:35;;;;;;;;;;;;;;;21.69;55.85;100770.53;5136266;27;1243;-61
2021/09/14 05:03:04;;;;;;;;;;;;;;;21.30;55.50;100774.59;5138629;27;1441;-60
2021/09/14 05:05:30;;;;;;;;;;;;;;;20.71;53.80;100777.03;5138035;27;1908;-50
2021/09/14 05:07:55;;;;;;;;;;;;;;;19.61;52.54;100772.44;5138943;27;1227;-59
2021/09/14 05:10:31;;;;;;;;;;;;;;;18.97;50.45;100776.16;5138430;27;1026;-57
2021/09/14 05:12:57;;;;;;;;;;;;;;;18.40;48.46;100783.19;5138218;27;1120;-62
2021/09/14 05:15:22;;;;;;;;;;;;;;;18.11;47.55;100781.97;5122613;27;1016;-47
2021/09/14 05:17:50;;;;;;;;;;;;;;;18.45;49.91;100785.88;5119022;28;1975;-62
2021/09/14 05:20:30;;;;;;;;;;;;;;;19.14;52.75;100781.22;5117344;27;1108;-59
2021/09/14 05:23:10;;;;;;;;;;;;;;;19.59;54.82;100778.25;5139336;27;1672;-50
2021/09/14 05:25:36;;;;;;;;;;;;;;;20.20;54.87;100784.09;5138152;27;758;-45
2021/09/14 05:28:01;;;;;;;;;;;;;;;20.44;55.49;100777.69;5139094;27;846;-60
2021/09/14 05:30:27;;;;;;;;;;;;;;;20.77;55.53;100781.34;5121612;27;964;-45
2021/09/14 05:32:52;;;;;;;;;;;;;;;20.86;56.15;100784.25;5117391;28;806;-48
2021/09/14 05:35:18;;;;;;;;;;;;;;;20.83;56.66;100791.19;5118042;28;511;-46
2021/09/14 05:37:44;;;;;;;;;;;;;;;21.17;56.04;100778.97;5117091;27;2015;-47
2021/09/14 05:40:10;;;;;;;;;;;;;;;21.47;55.59;100785.03;5131087;27;1380;-55
2021/09/14 05:42:37;;;;;;;;;;;;;;;21.56;55.50;100778.84;5145477;27;1208;-51
2021/09/14 05:45:06;;;;;;;;;;;;;;;21.55;55.53;100780.78;5154667;27;1238;-54
2021/09/14 05:47:31;;;;;;;;;;;;;;;21.79;55.12;100783.34;5158593;27;1279;-54
2021/09/14 05:49:59;;;;;;;;;;;;;;;21.84;54.90;100785.19;5158273;27;1158;-45
2021/09/14 05:52:25;;;;;;;;;;;;;;;21.57;54.92;100786.81;5157747;27;788;-47
2021/09/14 05:54:51;;;;;;;;;;;;;;;20.68;54.44;100789.50;5158455;27;1219;-45
2021/09/14 05:57:17;;;;;;;;;;;;;;;19.85;52.87;100793.69;5159077;27;1902;-60
2021/09/14 05:59:43;;;;;;;;;;;;;;;19.36;50.71;100782.63;5147015;27;1107;-61
2021/09/14 06:02:09;;;;;;;;;;;;;;;18.93;49.02;100785.28;5137137;27;1228;-51
2021/09/14 06:04:34;;;;;;;;;;;;;;;18.56;48.21;100787.47;5137531;27;1108;-60
2021/09/14 06:07:00;;;;;;;;;;;;;;;18.88;49.36;100788.91;5119621;27;1183;-64
2021/09/14 06:09:27;;;;;;;;;;;;;;;19.57;52.61;100787.94;5119925;27;1124;-63
2021/09/14 06:11:53;;;;;;;;;;;;;;;20.02;54.05;100790.44;5120309;27;1203;-59
2021/09/14 06:14:18;;;;;;;;;;;;;;;20.46;54.80;100798.38;5136842;27;1271;-60
2021/09/14 06:16:44;;;;;;;;;;;;;;;20.85;54.88;100791.69;5137898;27;1979;-51
2021/09/14 06:19:13;;;;;;;;;;;;;;;21.20;54.72;100788.63;5137275;27;1041;-51
2021/09/14 06:21:39;;;;;;;;;;;;;;;21.31;55.15;100789.25;5136516;27;1692;-48
2021/09/14 06:24:08;;;;;;;;;;;;;;;21.47;55.11;100793.34;5137000;27;1101;-54
2021/09/14 06:26:34;;;;;;;;;;;;;;;21.78;54.42;100801.06;5136643;27;1112;-57
2021/09/14 06:29:00;;;;;;;;;;;;;;;21.87;54.28;100795.66;5135850;27;1868;-44
2021/09/14 06:31:25;;;;;;;;;;;;;;;21.80;54.31;100801.59;5137227;27;1113;-50
2021/09/14 06:33:51;;;;;;;;;;;;;;;21.10;54.93;100788.81;5136581;27;1176;-60
2021/09/14 06:36:17;;;;;;;;;;;;;;;20.58;52.91;100795.16;5137400;27;763;-46
2021/09/14 06:38:43;;;;;;;;;;;;;;;19.79;51.38;100795.69;5136779;27;1898;-60
2021/09/14 06:41:09;;;;;;;;;;;;;;;18.96;50.70;100798.50;5136061;27;1321;-43
2021/09/14 06:43:40;;;;;;;;;;;;;;;18.70;48.53;100801.41;5133824;27;1180;-57
2021/09/14 06:46:26;;;;;;;;;;;;;;;18.35;47.92;100797.78;5116721;28;988;-59
2021/09/14 06:49:02;;;;;;;;;;;;;;;18.33;50.07;100800.03;5115618;27;1155;-44
2021/09/14 06:51:28;;;;;;;;;;;;;;;18.93;52.57;100818.38;5098641;28;814;-63
2021/09/14 06:54:17;;;;;;;;;;;;;;;19.71;54.05;100816.44;5101445;28;804;-46
2021/09/14 06:56:42;;;;;;;;;;;;;;;20.27;54.40;100812.19;5115010;28;1913;-63
2021/09/14 06:59:08;;;;;;;;;;;;;;;20.85;54.49;100822.09;5123635;27;1125;-48
2021/09/14 07:01:33;;;;;;;;;;;;;;;20.77;55.92;100814.50;5154483;27;758;-65
2021/09/14 07:03:59;;;;;;;;;;;;;;;21.29;55.02;100813.63;5156751;27;806;-64
2021/09/14 07:06:24;;;;;;;;;;;;;;;21.57;54.94;100819.22;5157705;27;746;-56
2021/09/14 07:08:50;;;;;;;;;;;;;;;21.58;55.22;100821.66;5142039;27;814;-45
2021/09/14 07:11:15;;;;;;;;;;;;;;;21.78;54.82;100825.97;5136615;27;1070;-58
2021/09/14 07:13:41;;;;;;;;;;;;;;;22.01;54.39;100826.88;5134322;27;1000;-65
2021/09/14 07:16:07;;;;;;;;;;;;;;;21.88;54.79;100831.31;5115583;27;1096;-59
2021/09/14 07:18:32;;;;;;;;;;;;;;;21.88;54.04;100831.31;5115278;28;2003;-58
2021/09/14 07:20:58;;;;;;;;;;;;;;;20.83;53.89;100835.41;5127945;27;1458;-56
2021/09/14 07:23:23;;;;;;;;;;;;;;;19.91;52.43;100831.16;5137085;27;805;-58
2021/09/14 07:25:49;;;;;;;;;;;;;;;19.49;50.86;100837.13;5136535;27;807;-45
2021/09/14 07:28:15;;;;;;;;;;;;;;;18.92;49.28;100825.78;5137087;27;870;-55
2021/09/14 07:30:42;;;;;;;;;;;;;;;18.54;47.93;100832.94;5117313;27;1007;-65
2021/09/14 07:33:09;;;;;;;;;;;;;;;18.38;48.37;100830.25;5115945;28;818;-57
2021/09/14 07:35:34;;;;;;;;;;;;;;;19.27;51.48;100837.59;5116326;28;807;-48
2021/09/14 07:37:59;;;;;;;;;;;;;;;19.83;53.82;100844.47;5115793;28;1971;-43
2021/09/14 07:40:26;;;;;;;;;;;;;;;20.32;55.18;100836.16;5116062;28;836;-46
2021/09/14 07:42:53;;;;;;;;;;;;;;;20.93;55.12;100839.13;5116178;28;851;-57
2021/09/14 07:45:18;;;;;;;;;;;;;;;21.23;55.48;100839.75;5115247;27;1019;-53
2021/09/14 07:47:44;;;;;;;;;;;;;;;21.58;54.75;100840.22;5116066;27;819;-61
2021/09/14 07:50:10;;;;;;;;;;;;;;;21.56;55.35;100831.41;5116070;28;803;-60
2021/09/14 07:52:35;;;;;;;;;;;;;;;21.77;54.95;100835.41;5115990;28;803;-57
2021/09/14 07:55:01;;;;;;;;;;;;;;;21.88;54.82;100842.38;5115821;28;775;-47
2021/09/14 07:57:26;;;;;;;;;;;;;;;21.60;54.90;100835.19;5115797;28;1968;-45
2021/09/14 07:59:51;;;;;;;;;;;;;;;21.01;53.82;100833.75;5115421;27;961;-60
2021/09/14 08:02:17;;;;;;;;;;;;;;;20.29;52.44;100834.78;5115684;28;851;-48
2021/09/14 08:04:42;;;;;;;;;;;;;;;19.81;50.93;100830.16;5116056;28;819;-45
2021/09/14 08:07:08;;;;;;;;;;;;;;;19.31;49.23;100829.59;5131991;27;1114;-55
2021/09/14 08:09:33;;;;;;;;;;;;;;;18.71;48.60;100833.34;5156814;27;1114;-58
2021/09/14 08:11:59;;;;;;;;;;;;;;;18.53;49.04;100840.38;5157243;27;810;-59
2021/09/14 08:14:24;;;;;;;;;;;;;;;19.34;51.80;100834.50;5146169;27;953;-53
2021/09/14 08:16:50;;;;;;;;;;;;;;;19.54;55.61;100832.66;5117865;28;1901;-56
2021/09/14 08:19:15;;;;;;;;;;;;;;;20.35;55.42;100832.78;5136379;27;771;-50
2021/09/14 08:21:41;;;;;;;;;;;;;;;20.89;55.50;100833.38;5135992;27;1576;-49
2021/09/14 08:24:09;;;;;;;;;;;;;;;21.36;55.07;100822.31;5135923;27;750;-57
2021/09/14 08:26:34;;;;;;;;;;;;;;;21.33;55.77;100826.53;5136384;27;830;-57
2021/09/14 08:29:00;;;;;;;;;;;;;;;21.44;55.75;100826.34;5131730;27;996;-44
2021/09/14 08:31:26;;;;;;;;;;;;;;;21.87;54.62;100826.91;5118199;28;747;-60
2021/09/14 08:33:51;;;;;;;;;;;;;;;21.39;55.32;100818.13;5119621;28;815;-46
2021/09/14 08:36:17;;;;;;;;;;;;;;;20.70;54.73;100808.53;5119526;28;827;-44
2021/09/14 08:38:44;;;;;;;;;;;;;;;19.98;53.25;100818.66;5118940;28;2087;-58
2021/09/14 08:41:11;;;;;;;;;;;;;;;19.40;51.50;100811.28;5119323;28;834;-58
2021/09/14 08:43:38;;;;;;;;;;;;;;;19.07;49.47;100811.06;5118114;27;965;-58
2021/09/14 08:46:04;;;;;;;;;;;;;;;18.64;48.37;100805.31;5118308;28;770;-56
2021/09/14 08:48:29;;;;;;;;;;;;;;;18.86;48.71;100795.78;5132627;27;878;-59
2021/09/14 08:50:55;;;;;;;;;;;;;;;19.05;51.65;100806.94;5137989;27;964;-47
2021/09/14 08:53:20;;;;;;;;;;;;;;;19.91;52.00;100798.88;5139636;27;896;-59
2021/09/14 08:55:46;;;;;;;;;;;;;;;19.93;54.98;100791.09;5140195;27;787;-54
2021/09/14 08:58:13;;;;;;;;;;;;;;;20.46;55.16;100809.41;5139788;27;1913;-45
2021/09/14 09:00:41;;;;;;;;;;;;;;;20.85;55.33;100800.00;5122704;27;1212;-56
2021/09/14 09:03:07;;;;;;;;;;;;;;;21.31;54.87;100800.31;5139316;27;1485;-50
2021/09/14 09:05:36;;;;;;;;;;;;;;;21.48;54.80;100805.25;5132201;27;1211;-62
2021/09/14 09:08:02;;;;;;;;;;;;;;;21.56;55.16;100806.50;5139705;27;758;-57
2021/09/14 09:10:28;;;;;;;;;;;;;;;21.66;54.86;100807.13;5138956;27;1038;-57
2021/09/14 09:12:53;;;;;;;;;;;;;;;21.32;54.24;100801.94;5139453;27;854;-57
2021/09/14 09:15:24;;;;;;;;;;;;;;;20.32;53.64;100803.00;5122422;27;1011;-48
2021/09/14 09:18:05;;;;;;;;;;;;;;;19.78;51.84;100805.91;5118550;28;1968;-46
2021/09/14 09:20:31;;;;;;;;;;;;;;;19.12;50.42;100799.97;5118573;28;735;-55
2021/09/14 09:23:00;;;;;;;;;;;;;;;18.67;49.60;100807.50;5118370;28;747;-58
2021/09/14 09:25:26;;;;;;;;;;;;;;;18.36;49.23;100804.16;5118603;28;740;-55
2021/09/14 09:28:04;;;;;;;;;;;;;;;18.93;51.67;100801.81;5118606;28;806;-61
2021/09/14 09:30:39;;;;;;;;;;;;;;;19.89;53.86;100800.28;5117539;27;945;-58
2021/09/14 09:33:07;;;;;;;;;;;;;;;20.39;55.39;100797.94;5118621;28;835;-60
2021/09/14 09:35:37;;;;;;;;;;;;;;;21.02;55.23;100804.13;5118530;28;804;-56
2021/09/14 09:38:02;;;;;;;;;;;;;;;21.37;55.17;100799.09;5117993;28;1914;-57
2021/09/14 09:40:32;;;;;;;;;;;;;;;21.48;55.65;100800.53;5117323;28;739;-58
2021/09/14 09:42:59;;;;;;;;;;;;;;;21.91;54.51;100793.06;5117181;28;803;-57
2021/09/14 09:45:25;;;;;;;;;;;;;;;21.30;55.38;100787.59;5117385;27;1011;-59
2021/09/14 09:47:50;;;;;;;;;;;;;;;20.67;54.80;100787.00;5118305;28;827;-50
2021/09/14 09:50:16;;;;;;;;;;;;;;;20.08;54.02;100783.75;5146733;27;1497;-52
2021/09/14 09:52:43;;;;;;;;;;;;;;;19.56;53.13;100783.53;5148545;27;1334;-49
2021/09/14 09:55:09;;;;;;;;;;;;;;;19.29;51.77;100784.94;5151500;27;819;-50
2021/09/14 09:57:34;;;;;;;;;;;;;;;19.10;50.77;100785.66;5159333;27;1909;-60
2021/09/14 10:00:00;;;;;;;;;;;;;;;18.89;50.55;100775.97;5131385;27;1022;-56
2021/09/14 10:02:28;;;;;;;;;;;;;;;18.85;49.93;100775.69;5118010;28;759;-56
2021/09/14 10:05:00;;;;;;;;;;;;;;;18.83;50.77;100780.66;5117739;28;751;-49
2021/09/14 10:07:29;;;;;;;;;;;;;;;18.92;51.66;100794.66;5116158;28;755;-55
2021/09/14 10:09:55;;;;;;;;;;;;;;;19.03;52.55;100796.22;5135425;27;1417;-54
2021/09/14 10:12:24;;;;;;;;;;;;;;;19.25;52.89;100794.88;5148918;27;1334;-56
2021/09/14 10:15:02;;;;;;;;;;;;;;;19.36;53.94;100788.16;5148425;27;952;-57
2021/09/14 10:17:28;;;;;;;;;;;;;;;19.81;54.65;100788.78;5145146;27;1902;-55
2021/09/14 10:19:53;;;;;;;;;;;;;;;20.23;55.03;100793.75;5137589;27;809;-56
2021/09/14 10:22:23;;;;;;;;;;;;;;;20.64;55.24;100787.63;5137777;27;1561;-56
2021/09/14 10:24:49;;;;;;;;;;;;;;;20.84;55.67;100787.28;5138062;27;766;-50
2021/09/14 10:27:15;;;;;;;;;;;;;;;21.29;54.80;100785.97;5136746;27;860;-58
2021/09/14 10:29:40;;;;;;;;;;;;;;;21.12;56.08;100787.34;5126809;27;1012;-55
2021/09/14 10:32:06;;;;;;;;;;;;;;;21.56;55.23;100776.06;5115650;28;776;-45
2021/09/14 10:34:33;;;;;;;;;;;;;;;21.49;55.70;100782.81;5117154;27;842;-56
2021/09/14 10:37:08;;;;;;;;;;;;;;;21.29;54.88;100784.00;5116851;28;1971;-51
2021/09/14 10:39:37;;;;;;;;;;;;;;;20.44;54.44;100778.53;5117685;28;794;-45
2021/09/14 10:42:21;;;;;;;;;;;;;;;19.82;52.43;100779.41;5116876;28;822;-56
2021/09/14 10:44:47;;;;;;;;;;;;;;;19.21;50.80;100777.28;5127015;27;969;-47
2021/09/14 10:47:14;;;;;;;;;;;;;;;18.89;49.32;100762.19;5136135;27;731;-47
2021/09/14 10:49:42;;;;;;;;;;;;;;;18.54;48.63;100775.13;5137421;27;822;-55
2021/09/14 10:52:08;;;;;;;;;;;;;;;18.53;49.82;100770.72;5136918;27;752;-45
2021/09/14 10:54:41;;;;;;;;;;;;;;;18.75;51.52;100775.78;5135806;27;926;-57
2021/09/14 10:57:06;;;;;;;;;;;;;;;19.27;53.28;100773.38;5136056;27;1980;-46
2021/09/14 10:59:32;;;;;;;;;;;;;;;19.49;55.79;100770.91;5135610;27;958;-57
2021/09/14 11:01:57;;;;;;;;;;;;;;;19.99;56.24;100772.53;5135540;27;779;-57
2021/09/14 11:04:26;;;;;;;;;;;;;;;20.62;55.70;100774.09;5136169;27;739;-45
2021/09/14 11:06:52;;;;;;;;;;;;;;;20.66;56.78;100774.31;5137311;27;826;-57
2021/09/14 11:09:17;;;;;;;;;;;;;;;21.16;55.85;100771.81;5136918;27;1007;-56
2021/09/14 11:11:48;;;;;;;;;;;;;;;21.25;56.21;100771.94;5137013;27;754;-57
2021/09/14 11:14:13;;;;;;;;;;;;;;;21.49;56.04;100780.03;5129575;27;944;-57
2021/09/14 11:16:39;;;;;;;;;;;;;;;21.69;55.47;100778.03;5115199;28;815;-49
2021/09/14 11:19:04;;;;;;;;;;;;;;;20.80;55.57;100775.22;5116631;28;1910;-57
2021/09/14 11:21:30;;;;;;;;;;;;;;;20.28;53.49;100774.34;5123168;27;1659;-46
2021/09/14 11:23:55;;;;;;;;;;;;;;;19.63;51.95;100779.31;5136487;27;818;-57
2021/09/14 11:26:21;;;;;;;;;;;;;;;19.17;50.33;100779.81;5136802;27;831;-47
2021/09/14 11:28:53;;;;;;;;;;;;;;;18.73;48.84;100767.81;5133154;27;972;-52
2021/09/14 11:31:19;;;;;;;;;;;;;;;18.21;48.14;100774.78;5115903;28;751;-47
2021/09/14 11:33:44;;;;;;;;;;;;;;;18.40;49.33;100767.50;5116410;28;795;-55
2021/09/14 11:36:09;;;;;;;;;;;;;;;19.08;52.81;100776.88;5114880;28;862;-57
2021/09/14 11:38:35;;;;;;;;;;;;;;;19.93;54.27;100769.03;5114571;28;1999;-53
2021/09/14 11:41:01;;;;;;;;;;;;;;;20.37;55.48;100778.09;5116043;28;770;-48
2021/09/14 11:43:30;;;;;;;;;;;;;;;20.82;56.34;100772.97;5115820;27;1089;-55
2021/09/14 11:45:59;;;;;;;;;;;;;;;20.63;57.95;100767.44;5135357;27;942;-44
2021/09/14 11:48:25;;;;;;;;;;;;;;;20.49;59.48;100769.34;5133665;27;999;-58
2021/09/14 11:51:06;;;;;;;;;;;;;;;20.52;59.65;100769.56;5115576;28;798;-44
2021/09/14 11:53:32;;;;;;;;;;;;;;;20.69;59.06;100768.19;5115968;28;779;-45
2021/09/14 11:55:57;;;;;;;;;;;;;;;20.43;57.55;100760.31;5115997;28;862;-57
2021/09/14 11:58:28;;;;;;;;;;;;;;;20.02;55.02;100755.41;5115688;28;1992;-52
2021/09/14 12:00:54;;;;;;;;;;;;;;;19.44;52.88;100757.19;5115251;27;945;-57
2021/09/14 12:03:21;;;;;;;;;;;;;;;18.96;50.87;100760.72;5115690;28;798;-57
2021/09/14 12:05:56;;;;;;;;;;;;;;;18.58;49.31;100752.22;5119869;28;763;-44
2021/09/14 12:08:31;;;;;;;;;;;;;;;18.27;48.42;100762.59;5118996;27;858;-58
2021/09/14 12:10:56;;;;;;;;;;;;;;;18.16;47.83;100756.38;5119719;28;1027;-57
2021/09/14 12:13:22;;;;;;;;;;;;;;;18.44;50.66;100763.06;5119531;28;822;-55
2021/09/14 12:15:48;;;;;;;;;;;;;;;19.31;53.59;100758.72;5118981;27;960;-46
2021/09/14 12:18:15;;;;;;;;;;;;;;;19.52;56.42;100754.88;5119703;28;1913;-45
2021/09/14 12:20:41;;;;;;;;;;;;;;;19.81;57.79;100758.44;5120626;27;1584;-55
2021/09/14 12:23:07;;;;;;;;;;;;;;;20.24;58.26;100757.53;5140002;27;743;-45
2021/09/14 12:25:32;;;;;;;;;;;;;;;20.59;58.03;100762.81;5140272;27;929;-45
2021/09/14 12:27:57;;;;;;;;;;;;;;;20.79;57.92;100762.53;5139916;27;818;-45
2021/09/14 12:30:23;;;;;;;;;;;;;;;20.82;58.40;100767.44;5128786;27;1069;-53
2021/09/14 12:32:48;;;;;;;;;;;;;;;20.68;59.44;100761.06;5143535;27;1168;-55
2021/09/14 12:35:14;;;;;;;;;;;;;;;20.79;60.04;100769.97;5159090;27;711;-56
2021/09/14 12:37:39;;;;;;;;;;;;;;;20.57;60.90;100767.84;5139775;27;1970;-52
2021/09/14 12:40:05;;;;;;;;;;;;;;;20.22;60.76;100768.09;5139320;27;758;-58
2021/09/14 12:42:30;;;;;;;;;;;;;;;20.24;57.08;100763.06;5153631;27;1288;-53
2021/09/14 12:44:59;;;;;;;;;;;;;;;20.12;60.37;100759.97;5133560;27;959;-58
2021/09/14 12:47:27;;;;;;;;;;;;;;;20.29;60.00;100773.25;5119153;28;787;-50
2021/09/14 12:49:53;;;;;;;;;;;;;;;20.24;57.75;100765.84;5116773;28;803;-51
2021/09/14 12:52:18;;;;;;;;;;;;;;;20.20;56.01;100770.31;5118943;28;771;-53
2021/09/14 12:54:43;;;;;;;;;;;;;;;20.22;54.58;100761.75;5129466;27;1154;-52
2021/09/14 12:57:09;;;;;;;;;;;;;;;19.93;54.42;100762.69;5138590;27;1901;-60
2021/09/14 12:59:34;;;;;;;;;;;;;;;19.86;54.56;100753.97;5129002;27;1008;-47
2021/09/14 13:02:00;;;;;;;;;;;;;;;19.93;53.70;100762.69;5117951;28;748;-52
2021/09/14 13:04:25;;;;;;;;;;;;;;;19.62;53.74;100757.53;5118681;28;779;-51
2021/09/14 13:06:51;;;;;;;;;;;;;;;19.76;53.13;100763.16;5119031;28;907;-45
2021/09/14 13:09:16;;;;;;;;;;;;;;;19.67;53.13;100763.81;5118670;28;1085;-52
2021/09/14 13:11:42;;;;;;;;;;;;;;;19.65;54.14;100763.28;5118644;28;850;-56
2021/09/14 13:16:51;;;;;;;;;;;;;;;19.84;53.25;100770.81;5118626;28;1969;-52
2021/09/14 13:19:17;;;;;;;;;;;;;;;19.86;53.10;100767.75;5118587;28;811;-57
2021/09/14 13:21:42;;;;;;;;;;;;;;;19.73;53.20;100767.34;5128416;27;1585;-53
2021/09/14 13:24:08;;;;;;;;;;;;;;;19.85;52.73;100760.59;5139151;27;819;-50
2021/09/14 13:26:33;;;;;;;;;;;;;;;19.87;52.52;100763.91;5138989;27;858;-48
2021/09/14 13:28:59;;;;;;;;;;;;;;;19.92;51.83;100763.81;5134166;27;1019;-58
2021/09/14 13:31:24;;;;;;;;;;;;;;;19.71;52.15;100757.69;5118899;28;755;-58
2021/09/14 13:33:49;;;;;;;;;;;;;;;19.70;52.10;100756.06;5118111;28;790;-47
2021/09/14 13:36:15;;;;;;;;;;;;;;;19.63;52.19;100759.19;5118249;28;791;-52
2021/09/14 13:38:40;;;;;;;;;;;;;;;19.74;51.65;100757.94;5116984;28;1984;-49
2021/09/14 13:41:09;;;;;;;;;;;;;;;19.58;51.98;100762.00;5118179;28;771;-57
2021/09/14 13:43:48;;;;;;;;;;;;;;;19.43;52.28;100761.06;5117501;27;957;-52
2021/09/14 13:46:14;;;;;;;;;;;;;;;19.49;51.76;100756.31;5116892;28;822;-50
2021/09/14 13:48:43;;;;;;;;;;;;;;;19.38;52.09;100757.56;5116806;28;764;-54
2021/09/14 13:51:11;;;;;;;;;;;;;;;19.47;51.68;100753.88;5116507;28;871;-54